createdAt,value
2022-10-15T00:01:29.628Z,101.20
2022-10-15T00:03:56.736Z,187.77
2022-10-15T00:06:23.937Z,217.27
2022-10-15T00:08:51.128Z,118.25
2022-10-15T00:11:22.391Z,97.85
2022-10-15T00:13:50.271Z,418.30
2022-10-15T00:16:21.530Z,237.07
2022-10-15T00:18:49.560Z,142.88
2022-10-15T00:21:20.396Z,190.73
2022-10-15T00:23:49.104Z,101.28
2022-10-15T00:26:22.744Z,180.15
2022-10-15T00:28:52.767Z,475.88
2022-10-15T00:31:24.551Z,402.65
2022-10-15T00:33:53.683Z,163.82
2022-10-15T00:36:27.214Z,270.42
2022-10-15T00:38:55.641Z,163.10
2022-10-15T00:41:35.758Z,127.30
2022-10-15T00:44:22.722Z,210.98
2022-10-15T00:46:56.952Z,184.38
2022-10-15T00:49:34.210Z,104.07
2022-10-15T00:52:11.524Z,109.20
2022-10-15T00:54:44.074Z,260.52
2022-10-15T00:57:12.514Z,267.55
2022-10-15T00:59:47.241Z,83.30
2022-10-15T01:02:18.611Z,62.83
2022-10-15T01:04:46.359Z,101.82
2022-10-15T01:07:13.588Z,37.85
2022-10-15T01:09:42.634Z,40.78
2022-10-15T01:12:26.257Z,46.80
2022-10-15T01:15:26.692Z,36.33
2022-10-15T01:18:06.702Z,35.67
2022-10-15T01:21:04.033Z,34.55
2022-10-15T01:24:08.565Z,35.38
2022-10-15T01:26:54.947Z,45.13
2022-10-15T01:29:52.574Z,45.60
2022-10-15T01:32:57.714Z,44.75
2022-10-15T01:35:48.862Z,43.08
2022-10-15T01:38:16.156Z,50.60
2022-10-15T01:40:51.837Z,48.92
2022-10-15T01:46:25.193Z,54.83
2022-10-15T01:49:07.004Z,47.70
2022-10-15T01:51:37.198Z,40.60
2022-10-15T01:54:11.755Z,41.20
2022-10-15T01:56:40.506Z,46.53
2022-10-15T01:59:10.291Z,44.47
2022-10-15T02:01:37.715Z,47.42
2022-10-15T02:04:20.890Z,47.20
2022-10-15T02:06:58.898Z,47.40
2022-10-15T02:09:46.397Z,47.20
2022-10-15T02:12:22.735Z,44.08
2022-10-15T02:15:18.128Z,56.53
2022-10-15T02:18:02.315Z,57.97
2022-10-15T02:21:07.026Z,55.05
2022-10-15T02:24:03.473Z,54.95
2022-10-15T02:26:31.216Z,61.08
2022-10-15T02:29:00.460Z,55.70
2022-10-15T02:31:30.926Z,52.95
2022-10-15T02:34:06.324Z,60.72
2022-10-15T02:36:33.893Z,57.97
2022-10-15T02:39:05.865Z,58.50
2022-10-15T02:41:35.929Z,52.97
2022-10-15T02:44:03.879Z,52.97
2022-10-15T02:46:31.057Z,48.97
2022-10-15T02:48:58.058Z,56.08
2022-10-15T02:51:25.617Z,59.28
2022-10-15T02:53:54.928Z,48.25
2022-10-15T02:56:21.866Z,76.38
2022-10-15T02:58:48.881Z,53.22
2022-10-15T03:01:15.806Z,67.18
2022-10-15T03:03:43.247Z,251.35
2022-10-15T03:06:10.298Z,141.07
2022-10-15T03:08:37.390Z,54.30
2022-10-15T03:11:05.024Z,143.85
2022-10-15T03:13:36.982Z,225.30
2022-10-15T03:16:08.689Z,116.55
2022-10-15T03:18:40.695Z,404.73
2022-10-15T03:21:09.903Z,360.85
2022-10-15T03:23:37.084Z,368.00
2022-10-15T03:26:13.346Z,79.55
2022-10-15T03:28:40.497Z,90.80
2022-10-15T03:31:07.712Z,97.93
2022-10-15T03:33:34.877Z,82.57
2022-10-15T03:36:02.567Z,233.02
2022-10-15T03:38:29.633Z,315.88
2022-10-15T03:40:58.070Z,120.03
2022-10-15T03:43:42.641Z,128.65
2022-10-15T03:46:10.501Z,233.50
2022-10-15T03:48:41.967Z,196.75
2022-10-15T03:51:11.296Z,54.03
2022-10-15T03:53:39.958Z,40.45
2022-10-15T03:56:07.268Z,40.35
2022-10-15T03:58:38.030Z,72.88
2022-10-15T04:01:15.377Z,163.35
2022-10-15T04:03:42.742Z,68.53
2022-10-15T04:06:10.955Z,38.15
2022-10-15T04:08:39.220Z,239.32
2022-10-15T04:11:22.727Z,77.80
2022-10-15T04:13:59.749Z,67.95
2022-10-15T04:16:27.148Z,77.22
2022-10-15T04:18:55.261Z,69.53
2022-10-15T04:21:22.268Z,68.90
2022-10-15T04:23:56.048Z,71.80
2022-10-15T04:26:29.028Z,79.97
2022-10-15T04:28:59.348Z,69.53
2022-10-15T04:31:27.712Z,70.70
2022-10-15T04:33:54.656Z,62.80
2022-10-15T04:36:21.686Z,120.65
2022-10-15T04:39:00.578Z,177.48
2022-10-15T04:41:40.729Z,112.32
2022-10-15T04:44:27.506Z,103.60
2022-10-15T04:46:57.073Z,96.20
2022-10-15T04:49:42.641Z,111.55
2022-10-15T04:52:26.126Z,50.88
2022-10-15T04:54:57.910Z,53.80
2022-10-15T04:57:25.814Z,62.22
2022-10-15T04:59:56.944Z,64.47
2022-10-15T05:02:25.076Z,66.90
2022-10-15T05:04:58.283Z,97.35
2022-10-15T05:07:25.553Z,75.90
2022-10-15T05:09:54.114Z,79.45
2022-10-15T05:12:21.386Z,92.93
2022-10-15T05:14:48.260Z,104.88
2022-10-15T05:17:21.695Z,95.10
2022-10-15T05:19:48.880Z,103.82
2022-10-15T05:22:24.323Z,100.05
2022-10-15T05:24:54.879Z,109.88
2022-10-15T05:27:30.382Z,107.88
2022-10-15T05:29:57.378Z,103.57
2022-10-15T05:32:31.263Z,97.03
2022-10-15T05:34:59.038Z,99.47
2022-10-15T05:37:35.533Z,101.35
2022-10-15T05:40:02.697Z,96.85
2022-10-15T05:42:29.722Z,100.97
2022-10-15T05:44:58.772Z,108.50
2022-10-15T05:47:26.291Z,101.63
2022-10-15T05:50:11.856Z,89.40
2022-10-15T05:52:43.268Z,86.57
2022-10-15T05:55:17.363Z,97.78
2022-10-15T05:57:44.242Z,101.85
2022-10-15T06:00:12.119Z,98.07
2022-10-15T06:02:39.308Z,99.95
2022-10-15T06:05:07.165Z,97.80
2022-10-15T06:07:39.848Z,103.75
2022-10-15T06:10:07.516Z,89.43
2022-10-15T06:12:34.872Z,102.78
2022-10-15T06:15:01.941Z,100.05
2022-10-15T06:17:28.806Z,97.97
2022-10-15T06:19:55.714Z,96.25
2022-10-15T06:22:22.812Z,94.97
2022-10-15T06:24:49.836Z,102.90
2022-10-15T06:27:16.738Z,94.53
2022-10-15T06:29:43.735Z,92.22
2022-10-15T06:32:11.764Z,91.80
2022-10-15T06:34:44.584Z,91.38
2022-10-15T06:37:11.533Z,86.07
2022-10-15T06:39:38.876Z,81.43
2022-10-15T06:42:05.776Z,83.18
2022-10-15T06:44:42.308Z,68.10
2022-10-15T06:47:10.280Z,68.60
2022-10-15T06:49:37.459Z,74.13
2022-10-15T06:52:04.556Z,72.63
2022-10-15T06:54:31.445Z,69.05
2022-10-15T06:56:58.536Z,67.25
2022-10-15T06:59:25.604Z,66.43
2022-10-15T07:01:55.255Z,68.72
2022-10-15T07:04:24.211Z,73.10
2022-10-15T07:06:51.116Z,58.08
2022-10-15T07:09:20.686Z,60.22
2022-10-15T07:11:47.862Z,57.08
2022-10-15T07:14:14.859Z,49.10
2022-10-15T07:16:41.798Z,60.25
2022-10-15T07:19:08.785Z,57.00
2022-10-15T07:21:35.800Z,57.92
2022-10-15T07:24:02.788Z,52.58
2022-10-15T07:26:31.287Z,58.65
2022-10-15T07:28:59.601Z,61.30
2022-10-15T07:31:26.881Z,58.00
2022-10-15T07:33:53.802Z,57.05
2022-10-15T07:36:20.857Z,55.83
2022-10-15T07:38:47.881Z,60.58
2022-10-15T07:41:15.005Z,65.78
2022-10-15T07:43:44.915Z,63.17
2022-10-15T07:46:12.237Z,59.75
2022-10-15T07:48:39.190Z,50.88
2022-10-15T07:51:07.356Z,52.33
2022-10-15T07:53:35.047Z,48.38
2022-10-15T07:56:06.831Z,47.42
2022-10-15T07:58:35.785Z,39.60
2022-10-15T08:01:05.565Z,47.08
2022-10-15T08:03:32.679Z,46.58
2022-10-15T08:06:05.981Z,47.50
2022-10-15T08:08:34.667Z,51.08
2022-10-15T08:11:08.518Z,47.00
2022-10-15T08:13:35.866Z,47.03
2022-10-15T08:16:02.875Z,50.90
2022-10-15T08:18:30.299Z,52.30
2022-10-15T08:21:02.063Z,49.33
2022-10-15T08:23:29.196Z,43.00
2022-10-15T08:26:00.459Z,45.28
2022-10-15T08:28:32.222Z,47.75
2022-10-15T08:31:04.361Z,51.90
2022-10-15T08:33:34.735Z,49.10
2022-10-15T08:36:02.242Z,49.80
2022-10-15T08:38:31.444Z,47.58
2022-10-15T08:41:00.740Z,43.78
2022-10-15T08:43:38.063Z,42.58
2022-10-15T08:46:45.991Z,40.00
2022-10-15T08:50:19.811Z,41.88
2022-10-15T08:52:50.991Z,36.50
2022-10-15T08:58:13.992Z,28.23
2022-10-15T09:00:56.914Z,31.75
2022-10-15T09:03:45.357Z,30.92
2022-10-15T09:06:29.007Z,28.10
2022-10-15T09:09:34.316Z,30.35
2022-10-15T09:12:41.551Z,28.55
2022-10-15T09:15:16.248Z,25.50
2022-10-15T09:17:48.951Z,22.45
2022-10-15T09:20:26.899Z,27.42
2022-10-15T09:22:54.371Z,29.10
2022-10-15T09:25:32.442Z,26.90
2022-10-15T09:28:10.447Z,23.38
2022-10-15T09:30:44.531Z,19.15
2022-10-15T09:33:45.122Z,19.00
2022-10-15T09:36:42.115Z,19.55
2022-10-15T09:39:51.275Z,21.38
2022-10-15T09:42:49.857Z,18.08
2022-10-15T09:45:24.264Z,19.40
2022-10-15T09:47:52.879Z,16.65
2022-10-15T09:50:19.951Z,22.65
2022-10-15T09:53:03.656Z,19.10
2022-10-15T09:55:46.551Z,23.98
2022-10-15T09:58:27.199Z,19.70
2022-10-15T10:01:05.914Z,19.70
2022-10-15T10:03:39.251Z,20.35
2022-10-15T10:06:14.115Z,16.15
2022-10-15T10:08:56.723Z,18.23
2022-10-15T10:11:26.714Z,20.48
2022-10-15T10:14:00.200Z,20.63
2022-10-15T10:16:30.134Z,20.08
2022-10-15T10:19:14.936Z,19.25
2022-10-15T10:21:43.593Z,18.63
2022-10-15T10:24:24.403Z,16.83
2022-10-15T10:26:51.423Z,19.77
2022-10-15T10:29:33.678Z,20.00
2022-10-15T10:32:30.683Z,21.60
2022-10-15T10:35:00.074Z,24.65
2022-10-15T10:37:27.834Z,19.23
2022-10-15T10:40:00.713Z,16.08
2022-10-15T10:42:34.293Z,18.33
2022-10-15T10:45:24.015Z,19.23
2022-10-15T10:47:50.975Z,19.20
2022-10-15T10:50:47.652Z,20.75
2022-10-15T10:53:25.217Z,21.52
2022-10-15T10:55:56.498Z,25.23
2022-10-15T10:58:29.564Z,21.65
2022-10-15T11:00:58.355Z,24.42
2022-10-15T11:03:36.231Z,21.58
2022-10-15T11:06:11.780Z,20.83
2022-10-15T11:08:52.021Z,20.92
2022-10-15T11:11:50.388Z,22.02
2022-10-15T11:14:39.109Z,18.75
2022-10-15T11:17:34.089Z,21.92
2022-10-15T11:20:30.529Z,21.08
2022-10-15T11:23:39.487Z,22.10
2022-10-15T11:26:51.944Z,18.83
2022-10-15T11:30:08.680Z,14.68
2022-10-15T11:33:12.851Z,19.80
2022-10-15T11:36:24.326Z,17.02
2022-10-15T11:39:09.311Z,18.63
2022-10-15T11:41:52.769Z,15.82
2022-10-15T11:45:08.300Z,12.18
2022-10-15T11:47:55.494Z,14.20
2022-10-15T11:50:41.045Z,10.07
2022-10-15T11:53:38.295Z,15.40
2022-10-15T11:56:22.559Z,14.77
2022-10-15T11:59:01.391Z,12.50
2022-10-15T12:01:59.681Z,15.32
2022-10-15T12:04:49.373Z,13.50
2022-10-15T12:07:28.867Z,11.98
2022-10-15T12:10:06.465Z,11.05
2022-10-15T12:12:51.198Z,11.20
2022-10-15T12:16:11.612Z,12.52
2022-10-15T12:18:58.374Z,6.38
2022-10-15T12:21:34.513Z,9.07
2022-10-15T12:24:03.623Z,9.18
2022-10-15T12:26:33.690Z,6.57
2022-10-15T12:29:16.694Z,8.15
2022-10-15T12:31:53.893Z,9.57
2022-10-15T12:34:31.668Z,8.85
2022-10-15T12:37:16.031Z,7.80
2022-10-15T12:39:52.101Z,6.68
2022-10-15T12:42:36.536Z,7.22
2022-10-15T12:45:08.514Z,9.02
2022-10-15T12:47:55.749Z,8.52
2022-10-15T12:50:28.152Z,5.95
2022-10-15T12:53:02.880Z,5.78
2022-10-15T12:55:35.425Z,7.15
2022-10-15T12:58:35.097Z,6.45
2022-10-15T13:01:14.248Z,7.72
2022-10-15T13:03:50.365Z,5.30
2022-10-15T13:06:38.475Z,5.97
2022-10-15T13:09:10.978Z,6.10
2022-10-15T13:11:56.718Z,10.70
2022-10-15T13:14:53.511Z,10.45
2022-10-15T13:17:22.441Z,7.20
2022-10-15T13:19:59.667Z,4.78
2022-10-15T13:22:33.626Z,6.85
2022-10-15T13:25:01.137Z,4.93
2022-10-15T13:27:37.611Z,5.88
2022-10-15T13:30:09.223Z,8.98
2022-10-15T13:32:49.318Z,6.38
2022-10-15T13:35:29.395Z,7.93
2022-10-15T13:37:58.377Z,6.72
2022-10-15T13:40:30.313Z,4.95
2022-10-15T13:43:22.889Z,6.93
2022-10-15T13:45:58.967Z,10.10
2022-10-15T13:48:30.528Z,5.00
2022-10-15T13:51:03.252Z,7.25
2022-10-15T13:53:32.239Z,5.70
2022-10-15T13:56:03.110Z,6.80
2022-10-15T13:58:34.415Z,4.85
2022-10-15T14:01:21.925Z,3.78
2022-10-15T14:03:53.131Z,8.65
2022-10-15T14:06:20.106Z,6.18
2022-10-15T14:08:50.151Z,3.60
2022-10-15T14:11:18.825Z,6.10
2022-10-15T14:13:58.029Z,4.60
2022-10-15T14:16:31.860Z,6.40
2022-10-15T14:19:14.348Z,4.57
2022-10-15T14:21:47.220Z,8.60
2022-10-15T14:24:24.976Z,8.00
2022-10-15T14:26:52.004Z,8.45
2022-10-15T14:29:28.280Z,6.20
2022-10-15T14:31:56.099Z,6.60
2022-10-15T14:34:41.794Z,7.32
2022-10-15T14:37:37.610Z,6.35
2022-10-15T14:40:13.267Z,9.52
2022-10-15T14:43:03.771Z,6.60
2022-10-15T14:46:01.253Z,8.02
2022-10-15T14:48:37.630Z,7.68
2022-10-15T14:51:08.118Z,6.80
2022-10-15T14:53:38.931Z,7.55
2022-10-15T14:56:18.052Z,6.80
2022-10-15T14:58:58.338Z,8.13
2022-10-15T15:01:27.588Z,7.00
2022-10-15T15:03:56.981Z,7.35
2022-10-15T15:06:24.215Z,6.80
2022-10-15T15:08:51.302Z,7.05
2022-10-15T15:11:22.921Z,7.00
2022-10-15T15:13:51.534Z,8.50
2022-10-15T15:16:19.619Z,6.15
2022-10-15T15:18:48.616Z,6.45
2022-10-15T15:21:22.793Z,5.90
2022-10-15T15:23:50.480Z,7.22
2022-10-15T15:26:17.520Z,7.28
2022-10-15T15:28:44.503Z,6.35
2022-10-15T15:31:18.103Z,5.88
2022-10-15T15:33:45.500Z,4.55
2022-10-15T15:36:18.890Z,5.40
2022-10-15T15:38:49.845Z,5.53
2022-10-15T15:41:19.550Z,7.25
2022-10-15T15:43:47.601Z,4.88
2022-10-15T15:46:15.418Z,5.57
2022-10-15T15:48:42.427Z,6.53
2022-10-15T15:51:25.615Z,5.93
2022-10-15T15:53:52.608Z,6.57
2022-10-15T15:56:20.102Z,6.97
2022-10-15T15:58:48.406Z,5.57
2022-10-15T16:01:15.436Z,5.25
2022-10-15T16:03:42.484Z,8.20
2022-10-15T16:06:10.263Z,6.70
2022-10-15T16:08:37.649Z,7.38
2022-10-15T16:11:06.889Z,8.13
2022-10-15T16:13:34.258Z,9.68
2022-10-15T16:16:01.292Z,7.30
2022-10-15T16:18:28.415Z,5.57
2022-10-15T16:20:55.537Z,4.68
2022-10-15T16:23:22.681Z,9.07
2022-10-15T16:25:49.669Z,4.18
2022-10-15T16:28:16.573Z,3.95
2022-10-15T16:30:43.584Z,5.00
2022-10-15T16:33:10.537Z,3.58
2022-10-15T16:35:37.791Z,8.13
2022-10-15T16:38:04.771Z,8.80
2022-10-15T16:40:31.883Z,8.48
2022-10-15T16:42:59.521Z,3.13
2022-10-15T16:45:27.118Z,5.68
2022-10-15T16:47:55.426Z,4.55
2022-10-15T16:50:22.727Z,3.55
2022-10-15T16:52:49.632Z,2.85
2022-10-15T16:55:16.893Z,5.53
2022-10-15T16:57:44.436Z,3.08
2022-10-15T17:00:12.269Z,5.28
2022-10-15T17:02:39.421Z,1.70
2022-10-15T17:05:08.717Z,2.20
2022-10-15T17:07:36.238Z,2.17
2022-10-15T17:10:03.498Z,3.17
2022-10-15T17:12:30.450Z,1.90
2022-10-15T17:14:57.393Z,8.75
2022-10-15T17:17:24.414Z,3.53
2022-10-15T17:19:51.419Z,2.95
2022-10-15T17:22:18.388Z,2.72
2022-10-15T17:24:45.342Z,2.97
2022-10-15T17:27:12.562Z,1.73
2022-10-15T17:29:39.852Z,3.03
2022-10-15T17:32:06.842Z,2.35
2022-10-15T17:34:34.303Z,5.80
2022-10-15T17:37:02.231Z,5.35
2022-10-15T17:39:29.230Z,5.60
2022-10-15T17:41:56.318Z,11.15
2022-10-15T17:44:23.368Z,5.05
2022-10-15T17:46:52.680Z,11.60
2022-10-15T17:49:26.339Z,8.00
2022-10-15T17:51:53.366Z,5.88
2022-10-15T17:54:20.307Z,6.40
2022-10-15T17:56:48.738Z,4.18
2022-10-15T17:59:16.154Z,5.20
2022-10-15T18:02:00.531Z,3.88
2022-10-15T18:04:29.624Z,2.95
2022-10-15T18:06:56.862Z,9.35
2022-10-15T18:09:26.678Z,15.50
2022-10-15T18:11:56.133Z,7.03
2022-10-15T18:14:29.482Z,8.20
2022-10-15T18:16:56.665Z,8.85
2022-10-15T18:19:25.737Z,7.05
2022-10-15T18:21:52.892Z,13.90
2022-10-15T18:24:22.072Z,2.80
2022-10-15T18:26:52.951Z,7.60
2022-10-15T18:29:20.685Z,4.72
2022-10-15T18:31:48.066Z,4.85
2022-10-15T18:34:15.809Z,4.88
2022-10-15T18:36:43.572Z,3.78
2022-10-15T18:39:11.730Z,6.82
2022-10-15T18:41:40.305Z,6.97
2022-10-15T18:44:14.836Z,6.30
2022-10-15T18:46:44.762Z,9.90
2022-10-15T18:49:14.254Z,3.78
2022-10-15T18:51:41.639Z,14.20
2022-10-15T18:54:10.810Z,8.75
2022-10-15T18:56:38.183Z,8.95
2022-10-15T18:59:05.502Z,6.63
2022-10-15T19:01:35.411Z,8.18
2022-10-15T19:04:15.965Z,7.53
2022-10-15T19:06:46.958Z,7.00
2022-10-15T19:09:17.300Z,8.35
2022-10-15T19:11:46.935Z,8.55
2022-10-15T19:14:15.822Z,10.98
2022-10-15T19:16:44.475Z,9.35
2022-10-15T19:19:16.335Z,10.27
2022-10-15T19:21:45.217Z,9.60
2022-10-15T19:24:13.387Z,7.55
2022-10-15T19:26:40.854Z,6.93
2022-10-15T19:29:07.787Z,11.00
2022-10-15T19:31:38.841Z,9.18
2022-10-15T19:34:06.293Z,13.70
2022-10-15T19:36:46.467Z,7.50
2022-10-15T19:39:22.511Z,6.53
2022-10-15T19:41:50.988Z,6.72
2022-10-15T19:44:24.713Z,4.57
2022-10-15T19:46:52.089Z,5.53
2022-10-15T19:49:19.575Z,5.10
2022-10-15T19:51:50.411Z,4.55
2022-10-15T19:54:17.675Z,5.28
2022-10-15T19:56:44.706Z,5.43
2022-10-15T19:59:12.395Z,4.47
2022-10-15T20:01:39.732Z,9.27
2022-10-15T20:04:07.457Z,4.90
2022-10-15T20:06:38.195Z,5.40
2022-10-15T20:09:06.985Z,5.72
2022-10-15T20:11:34.422Z,5.13
2022-10-15T20:14:01.837Z,7.07
2022-10-15T20:16:32.708Z,2.38
2022-10-15T20:19:05.704Z,6.93
2022-10-15T20:21:32.979Z,7.78
2022-10-15T20:24:04.169Z,8.32
2022-10-15T20:26:31.924Z,4.38
2022-10-15T20:28:59.090Z,7.15
2022-10-15T20:31:31.795Z,9.25
2022-10-15T20:33:59.191Z,11.13
2022-10-15T20:36:27.352Z,6.15
2022-10-15T20:38:55.571Z,3.92
2022-10-15T20:41:22.489Z,6.60
2022-10-15T20:43:55.056Z,5.85
2022-10-15T20:46:33.682Z,6.45
2022-10-15T20:49:09.699Z,8.20
2022-10-15T20:51:39.893Z,4.60
2022-10-15T20:54:07.083Z,5.38
2022-10-15T20:56:34.705Z,4.22
2022-10-15T20:59:03.990Z,8.00
2022-10-15T21:01:32.458Z,5.03
2022-10-15T21:03:59.626Z,6.10
2022-10-15T21:06:26.917Z,9.15
2022-10-15T21:08:53.901Z,4.68
2022-10-15T21:11:20.895Z,7.05
2022-10-15T21:13:47.820Z,9.50
2022-10-15T21:16:14.797Z,4.57
2022-10-15T21:18:41.819Z,4.82
2022-10-15T21:21:12.198Z,4.13
2022-10-15T21:23:41.409Z,4.28
2022-10-15T21:26:12.756Z,14.57
2022-10-15T21:28:39.865Z,6.07
2022-10-15T21:31:12.026Z,4.03
2022-10-15T21:33:39.678Z,5.75
2022-10-15T21:36:26.160Z,7.03
2022-10-15T21:39:06.817Z,3.60
2022-10-15T21:41:36.478Z,5.75
2022-10-15T21:44:05.894Z,10.10
2022-10-15T21:46:34.315Z,7.18
2022-10-15T21:49:03.476Z,8.77
2022-10-15T21:51:32.434Z,3.78
2022-10-15T21:54:00.936Z,12.70
2022-10-15T21:56:28.482Z,7.20
2022-10-15T21:58:55.456Z,9.13
2022-10-15T22:01:41.852Z,8.00
2022-10-15T22:04:10.680Z,7.22
2022-10-15T22:06:42.207Z,4.20
2022-10-15T22:09:10.472Z,5.25
2022-10-15T22:11:40.853Z,7.78
2022-10-15T22:14:12.372Z,6.75
2022-10-15T22:16:40.968Z,4.35
2022-10-15T22:19:10.109Z,7.88
2022-10-15T22:21:38.749Z,6.25
2022-10-15T22:24:15.005Z,6.93
2022-10-15T22:26:49.210Z,7.50
2022-10-15T22:29:25.807Z,5.30
2022-10-15T22:31:54.050Z,5.55
2022-10-15T22:34:22.849Z,10.10
2022-10-15T22:36:50.087Z,4.53
2022-10-15T22:39:18.785Z,5.28
2022-10-15T22:41:47.552Z,6.22
2022-10-15T22:44:19.330Z,4.15
2022-10-15T22:46:49.185Z,4.88
2022-10-15T22:49:19.570Z,4.75
2022-10-15T22:51:47.349Z,5.50
2022-10-15T22:54:16.537Z,4.18
2022-10-15T22:56:43.611Z,6.68
2022-10-15T22:59:10.603Z,8.32
2022-10-15T23:01:38.242Z,7.65
2022-10-15T23:04:07.588Z,8.20
2022-10-15T23:06:36.797Z,4.35
2022-10-15T23:09:06.808Z,3.22
2022-10-15T23:11:40.100Z,4.25
2022-10-15T23:14:12.864Z,6.72
2022-10-15T23:16:43.595Z,6.72
2022-10-15T23:19:20.411Z,4.20
2022-10-15T23:21:53.884Z,6.72
2022-10-15T23:24:23.018Z,3.50
2022-10-15T23:26:50.755Z,3.13
2022-10-15T23:29:24.605Z,4.43
2022-10-15T23:31:52.931Z,4.63
2022-10-15T23:34:25.726Z,7.00
2022-10-15T23:36:53.447Z,4.15
2022-10-15T23:39:24.281Z,5.78
2022-10-15T23:41:51.805Z,6.07
2022-10-15T23:44:19.475Z,4.88
2022-10-15T23:46:47.106Z,8.05
2022-10-15T23:49:14.097Z,7.28
2022-10-15T23:51:41.397Z,11.70
2022-10-15T23:54:16.396Z,3.28
2022-10-15T23:56:44.253Z,5.30
2022-10-15T23:59:11.766Z,4.45
